createdAt,value
2023-04-15T00:01:19.967Z,6.07
2023-04-15T00:06:23.794Z,6.10
2023-04-15T00:11:28.981Z,6.00
2023-04-15T00:16:32.306Z,6.60
2023-04-15T00:21:35.836Z,6.38
2023-04-15T00:26:40.720Z,6.45
2023-04-15T00:31:44.784Z,5.78
2023-04-15T00:36:48.726Z,5.73
2023-04-15T00:41:54.310Z,5.40
2023-04-15T00:46:59.507Z,5.90
2023-04-15T00:52:03.255Z,5.20
2023-04-15T00:57:09.007Z,5.85
2023-04-15T01:02:12.447Z,4.50
2023-04-15T01:07:16.281Z,4.45
2023-04-15T01:12:21.680Z,5.00
2023-04-15T01:17:26.016Z,4.43
2023-04-15T01:22:29.471Z,4.10
2023-04-15T01:27:35.365Z,4.00
2023-04-15T01:32:39.024Z,4.60
2023-04-15T01:37:42.418Z,4.63
2023-04-15T01:42:47.429Z,5.30
2023-04-15T01:47:52.073Z,5.72
2023-04-15T01:52:55.415Z,5.47
2023-04-15T01:58:00.057Z,5.90
2023-04-15T02:03:03.472Z,5.80
2023-04-15T02:08:06.920Z,6.13
2023-04-15T02:13:12.081Z,6.03
2023-04-15T02:18:15.673Z,5.72
2023-04-15T02:23:20.255Z,6.50
2023-04-15T02:28:24.916Z,6.32
2023-04-15T02:33:28.144Z,6.43
2023-04-15T02:38:32.082Z,6.83
2023-04-15T02:43:36.858Z,6.72
2023-04-15T02:48:40.814Z,7.10
2023-04-15T02:53:45.682Z,8.00
2023-04-15T02:58:50.883Z,7.50
2023-04-15T03:03:54.614Z,6.72
2023-04-15T03:08:57.957Z,6.93
2023-04-15T03:14:02.731Z,7.63
2023-04-15T03:19:11.107Z,8.00
2023-04-15T03:24:17.447Z,7.28
2023-04-15T03:29:23.032Z,7.47
2023-04-15T03:34:26.375Z,8.57
2023-04-15T03:39:29.716Z,8.20
2023-04-15T03:44:34.357Z,8.93
2023-04-15T03:49:37.860Z,8.73
2023-04-15T03:54:41.164Z,9.35
2023-04-15T03:59:45.888Z,8.80
2023-04-15T04:04:49.220Z,9.32
2023-04-15T04:09:52.881Z,11.23
2023-04-15T04:14:57.601Z,9.90
2023-04-15T04:20:00.978Z,10.82
2023-04-15T04:25:04.400Z,10.30
2023-04-15T04:30:10.242Z,11.23
2023-04-15T04:35:13.472Z,11.67
2023-04-15T04:40:17.223Z,10.95
2023-04-15T04:45:22.171Z,9.60
2023-04-15T04:50:25.682Z,10.27
2023-04-15T04:55:29.068Z,13.87
2023-04-15T05:00:33.760Z,10.32
2023-04-15T05:05:37.094Z,9.13
2023-04-15T05:10:40.377Z,10.17
2023-04-15T05:15:45.520Z,9.80
2023-04-15T05:20:50.132Z,10.30
2023-04-15T05:25:53.433Z,9.88
2023-04-15T05:30:58.230Z,8.00
2023-04-15T05:36:01.559Z,8.48
2023-04-15T05:41:05.217Z,9.23
2023-04-15T05:46:10.082Z,7.67
2023-04-15T05:51:13.311Z,10.15
2023-04-15T05:56:16.511Z,7.10
2023-04-15T06:01:25.500Z,9.07
2023-04-15T06:06:28.779Z,7.47
2023-04-15T06:11:32.044Z,6.22
2023-04-15T06:16:37.854Z,6.70
2023-04-15T06:21:41.990Z,6.72
2023-04-15T06:26:45.403Z,7.13
2023-04-15T06:31:50.817Z,6.70
2023-04-15T06:36:54.800Z,5.82
2023-04-15T06:41:58.257Z,6.53
2023-04-15T06:47:03.052Z,5.60
2023-04-15T06:52:06.444Z,4.90
2023-04-15T06:57:09.781Z,5.20
2023-04-15T07:02:15.080Z,5.50
2023-04-15T07:07:18.614Z,3.90
2023-04-15T07:12:22.100Z,3.80
2023-04-15T07:17:27.474Z,5.40
2023-04-15T07:22:31.166Z,4.97
2023-04-15T07:27:34.441Z,3.80
2023-04-15T07:32:39.226Z,3.80
2023-04-15T07:37:43.385Z,4.40
2023-04-15T07:42:48.411Z,3.60
2023-04-15T07:47:53.007Z,3.43
2023-04-15T07:52:57.719Z,3.30
2023-04-15T07:58:01.411Z,3.47
2023-04-15T08:03:07.115Z,3.80
2023-04-15T08:08:10.977Z,4.07
2023-04-15T08:13:14.312Z,4.15
2023-04-15T08:18:19.055Z,3.80
2023-04-15T08:23:22.699Z,4.45
2023-04-15T08:28:26.086Z,5.05
2023-04-15T08:33:30.867Z,5.00
2023-04-15T08:38:34.375Z,4.40
2023-04-15T08:43:48.182Z,3.90
2023-04-15T08:48:53.571Z,3.53
2023-04-15T08:53:56.999Z,3.70
2023-04-15T08:59:00.986Z,3.77
2023-04-15T09:04:08.284Z,2.90
2023-04-15T09:09:11.720Z,3.33
2023-04-15T09:14:14.951Z,3.38
2023-04-15T09:19:25.473Z,2.78
2023-04-15T09:24:38.632Z,2.40
2023-04-15T09:29:43.617Z,3.20
2023-04-15T09:34:48.329Z,2.20
2023-04-15T09:39:53.215Z,3.23
2023-04-15T09:44:56.714Z,2.22
2023-04-15T09:50:02.506Z,2.20
2023-04-15T09:55:08.286Z,2.33
2023-04-15T10:00:12.602Z,1.93
2023-04-15T10:05:18.164Z,1.92
2023-04-15T10:10:22.296Z,1.48
2023-04-15T10:15:27.114Z,1.70
2023-04-15T10:20:32.113Z,1.13
2023-04-15T10:25:35.727Z,2.30
2023-04-15T10:30:39.991Z,1.25
2023-04-15T10:35:46.436Z,1.10
2023-04-15T10:40:52.576Z,1.40
2023-04-15T10:45:55.984Z,1.15
2023-04-15T10:51:03.982Z,1.53
2023-04-15T10:56:07.958Z,2.30
2023-04-15T11:01:11.458Z,1.70
2023-04-15T11:06:16.538Z,0.95
2023-04-15T11:11:20.179Z,0.70
2023-04-15T11:16:23.667Z,0.70
2023-04-15T11:21:29.276Z,1.73
2023-04-15T11:26:32.496Z,1.35
2023-04-15T11:31:37.152Z,0.80
2023-04-15T11:36:45.181Z,0.90
2023-04-15T11:41:48.708Z,1.00
2023-04-15T11:46:52.363Z,1.20
2023-04-15T11:51:57.454Z,0.70
2023-04-15T11:57:01.973Z,1.40
2023-04-15T12:02:14.433Z,1.50
2023-04-15T12:07:19.768Z,0.82
2023-04-15T12:12:23.626Z,1.10
2023-04-15T12:17:27.694Z,0.70
2023-04-15T12:22:39.288Z,1.38
2023-04-15T12:27:42.687Z,1.10
2023-04-15T12:32:48.348Z,1.30
2023-04-15T12:37:53.267Z,1.60
2023-04-15T12:42:57.623Z,0.73
2023-04-15T12:48:01.295Z,0.90
2023-04-15T12:53:05.942Z,0.90
2023-04-15T12:58:09.646Z,0.60
2023-04-15T13:03:12.994Z,1.25
2023-04-15T13:08:18.333Z,0.80
2023-04-15T13:13:22.894Z,1.20
2023-04-15T13:18:26.972Z,0.93
2023-04-15T13:23:31.969Z,1.00
2023-04-15T13:28:35.324Z,1.10
2023-04-15T13:33:38.837Z,1.80
2023-04-15T13:38:43.495Z,1.90
2023-04-15T13:43:47.319Z,1.60
2023-04-15T13:48:50.965Z,2.70
2023-04-15T13:53:55.708Z,1.33
2023-04-15T13:59:02.167Z,3.03
2023-04-15T14:04:06.193Z,5.07
2023-04-15T14:09:11.420Z,2.15
2023-04-15T14:14:16.260Z,2.00
2023-04-15T14:19:19.873Z,2.28
2023-04-15T14:24:25.905Z,2.60
2023-04-15T14:29:29.514Z,1.60
2023-04-15T14:34:32.821Z,1.70
2023-04-15T14:39:37.465Z,1.23
2023-04-15T14:44:40.712Z,1.45
2023-04-15T14:49:43.994Z,2.20
2023-04-15T14:54:48.709Z,1.27
2023-04-15T14:59:56.756Z,2.53
2023-04-15T15:05:01.966Z,1.60
2023-04-15T15:10:09.127Z,2.20
2023-04-15T15:15:28.147Z,1.40
2023-04-15T15:20:33.086Z,4.20
2023-04-15T15:25:37.907Z,2.05
2023-04-15T15:30:41.544Z,1.90
2023-04-15T15:35:45.465Z,2.25
2023-04-15T15:40:50.523Z,2.77
2023-04-15T15:45:55.607Z,2.20
2023-04-15T15:50:59.523Z,2.20
2023-04-15T15:56:04.807Z,3.65
2023-04-15T16:01:08.674Z,11.57
2023-04-15T16:06:11.975Z,4.40
2023-04-15T16:11:17.313Z,3.00
2023-04-15T16:16:20.680Z,4.68
2023-04-15T16:21:24.974Z,4.28
2023-04-15T16:26:30.321Z,3.25
2023-04-15T16:31:34.876Z,2.55
2023-04-15T16:36:40.469Z,2.80
2023-04-15T16:41:45.137Z,3.33
2023-04-15T16:46:48.454Z,7.75
2023-04-15T16:51:54.715Z,3.40
2023-04-15T16:56:59.669Z,3.47
2023-04-15T17:02:03.075Z,4.60
2023-04-15T17:07:06.721Z,4.55
2023-04-15T17:12:11.596Z,3.88
2023-04-15T17:17:16.545Z,4.90
2023-04-15T17:22:19.933Z,4.47
2023-04-15T17:27:24.800Z,4.95
2023-04-15T17:32:31.973Z,4.78
2023-04-15T17:37:35.857Z,12.13
2023-04-15T17:42:40.726Z,6.90
2023-04-15T17:47:44.258Z,4.43
2023-04-15T17:52:48.486Z,4.63
2023-04-15T17:57:53.126Z,7.13
2023-04-15T18:02:56.493Z,6.97
2023-04-15T18:08:00.149Z,5.90
2023-04-15T18:13:05.087Z,7.97
2023-04-15T18:18:08.410Z,6.70
2023-04-15T18:23:12.045Z,6.75
2023-04-15T18:28:16.783Z,5.18
2023-04-15T18:33:19.986Z,9.03
2023-04-15T18:38:23.346Z,10.53
2023-04-15T18:43:28.051Z,7.70
2023-04-15T18:48:31.459Z,6.03
2023-04-15T18:53:34.904Z,6.00
2023-04-15T18:59:08.778Z,8.15
2023-04-15T19:04:03.837Z,4.30
2023-04-15T19:09:08.359Z,4.13
2023-04-15T19:14:13.285Z,4.20
2023-04-15T19:19:16.552Z,6.55
2023-04-15T19:24:20.059Z,3.95
2023-04-15T19:29:25.282Z,3.93
2023-04-15T19:34:28.553Z,22.60
2023-04-15T19:39:31.857Z,4.25
2023-04-15T19:44:37.328Z,4.50
2023-04-15T19:49:40.597Z,4.18
2023-04-15T19:54:43.908Z,5.38
2023-04-15T19:59:48.679Z,4.40
2023-04-15T20:04:51.944Z,5.45
2023-04-15T20:09:56.231Z,5.95
2023-04-15T20:15:01.008Z,8.25
2023-04-15T20:20:05.176Z,7.18
2023-04-15T20:25:09.340Z,4.80
2023-04-15T20:30:14.274Z,5.43
2023-04-15T20:35:17.620Z,5.40
2023-04-15T20:40:21.612Z,12.07
2023-04-15T20:45:26.480Z,6.32
2023-04-15T20:50:29.671Z,5.07
2023-04-15T20:55:33.096Z,5.53
2023-04-15T21:00:37.859Z,6.30
2023-04-15T21:05:41.169Z,5.65
2023-04-15T21:10:44.814Z,8.27
2023-04-15T21:15:54.021Z,10.13
2023-04-15T21:20:58.033Z,9.97
2023-04-15T21:26:01.346Z,9.02
2023-04-15T21:31:06.737Z,6.30
2023-04-15T21:36:10.162Z,5.83
2023-04-15T21:41:13.538Z,7.18
2023-04-15T21:46:22.275Z,5.95
2023-04-15T21:51:28.240Z,7.18
2023-04-15T21:56:31.504Z,5.57
2023-04-15T22:01:36.360Z,5.38
2023-04-15T22:06:39.770Z,5.78
2023-04-15T22:11:43.151Z,6.20
2023-04-15T22:16:47.844Z,6.95
2023-04-15T22:21:51.981Z,6.88
2023-04-15T22:26:55.230Z,7.13
2023-04-15T22:31:59.940Z,6.82
2023-04-15T22:37:04.815Z,6.80
2023-04-15T22:42:08.397Z,7.07
2023-04-15T22:47:13.225Z,6.57
2023-04-15T22:52:29.572Z,7.97
2023-04-15T22:57:33.592Z,6.72
2023-04-15T23:02:38.333Z,7.18
2023-04-15T23:07:41.814Z,6.80
2023-04-15T23:12:45.105Z,6.68
2023-04-15T23:17:49.897Z,7.15
2023-04-15T23:22:53.322Z,7.63
2023-04-15T23:27:56.584Z,7.18
2023-04-15T23:33:01.572Z,7.57
2023-04-15T23:38:05.039Z,7.22
2023-04-15T23:43:08.301Z,7.10
2023-04-15T23:48:13.038Z,7.85
2023-04-15T23:53:16.470Z,7.77
2023-04-15T23:58:19.820Z,8.02
